الصفحة الرئيسية
METAR-TAF:

METAR-TAF

مطار :

سكوتسبلوف, نبراسكا, الولايات المتحدة

دائرة عرض: 41-52-01N, خط طول: 103-35-09W, ارتفاع: 1208 متر

مراقبة الطقس الحالي

تاريخ ووقت الإصدار 55 دقيقة قبل الساعة 03:53UTC
ريح 11 عقدة من الشرق/الجنوب الشرقي
درجة الحرارة 22°درجة مئوية
الرطوبة 83%
ضغط 1019 hPa
الرؤية: 16.1 كم
سماء صافية

METAR: KBFF 180353Z AUTO 12011KT 10SM CLR 22/19 A3009 RMK AO2 SLP147 T02170194

زمن: 22:48 (04:48 UTC)

توقعات

تاريخ ووقت الإصدار 5ساعات و 28 دقيقة قبل الساعة 23:20UTC
التوقعات صالحة من18 الساعة 00 UTC إلى 18 الساعة 24 UTC
ريح 12 عقدة من الجنوب الشرقي
الرؤية: 10 كم
غيوم مفككة على ارتفاع 4000 قدم, مزنة ركامية.
غيوم مفككة على ارتفاع 10000 قدم
عاصفة رعدية بالجوار
من 18 الساعة 0800 UTC
ريح 5 عقدةمن اتجاهات متغيرة
الرؤية: 10 كم
غيوم متفرقة على ارتفاع 12000 قدم
غيوم متفرقة على ارتفاع 25000 قدم
من 18 الساعة 1700 UTC
ريح 10 عقدة من الشمال الغربي تتزايد حتى 20 عقدة
الرؤية: 10 كم
غيوم متفرقة على ارتفاع 25000 قدم

TAF: KBFF 172320Z 1800/1824 13012KT P6SM VCTS BKN040CB BKN100 FM180800 VRB05KT P6SM SCT120 SCT250 FM181700 32010G20KT P6SM SCT250

أرصاد الطقس والتوقعات من أكثر من 4000 مطار (تقارير الطقس للمطار METAR والتنبؤ بالطقس بالمطارTAF).

المحطات المتاحة هي النقط الصفراء والحمراء على الخريطة.

حرك المؤشر فوق النقطة لمعرفة اسم المحطة.

ثم انقر لمعرفة أرصاد وتوقعات الطقس.

لتغيير الخارطة: اضغط على الأزرار الخضراء مع رمز الصليب الأسود للتكبير. على الزر الأخضر مع شرطة للتصغير، أو على الأسهم الخضراء للخرائط المجاورة.


METAR-TAF: